Time;durP1;ratioP1;P1;durP2;ratioP2;P2;SDS_P1;SDS_P2;PMS_P1;PMS_P2;Temp;Humidity;BMP_temperature;BMP_pressure;BME280_temperature;BME280_humidity;BME280_pressure;Samples;Min_cycle;Max_cycle;Signal;HPM_P1;HPM_P2
2023/12/07 00:02:03;;;;;;;8.50;5.78;;;;;;;;;;5048824;28;20136;-80
2023/12/07 00:04:30;;;;;;;12.05;6.93;;;;;;;;;;5073488;28;20049;-80
2023/12/07 00:06:57;;;;;;;9.60;6.18;;;;;;;;;;5074031;28;20502;-79
2023/12/07 00:09:24;;;;;;;9.15;5.70;;;;;;;;;;5090388;28;20525;-79
2023/12/07 00:11:51;;;;;;;10.90;6.22;;;;;;;;;;5059608;28;20099;-79
2023/12/07 00:14:18;;;;;;;10.73;6.55;;;;;;;;;;5058117;28;20049;-79
2023/12/07 00:16:45;;;;;;;10.27;5.97;;;;;;;;;;5056960;28;20126;-79
2023/12/07 00:19:11;;;;;;;13.25;6.60;;;;;;;;;;5094524;28;20399;-78
2023/12/07 00:21:38;;;;;;;11.77;6.80;;;;;;;;;;5065347;28;20053;-78
2023/12/07 00:24:05;;;;;;;11.13;6.65;;;;;;;;;;5070520;28;20056;-78
2023/12/07 00:26:32;;;;;;;7.82;5.60;;;;;;;;;;5051114;28;20056;-77
2023/12/07 00:28:59;;;;;;;10.65;6.80;;;;;;;;;;5056599;28;20106;-77
2023/12/07 00:31:26;;;;;;;9.80;6.90;;;;;;;;;;5090222;28;20045;-77
2023/12/07 00:33:52;;;;;;;10.60;6.40;;;;;;;;;;5076100;28;20056;-77
2023/12/07 00:36:20;;;;;;;10.32;6.53;;;;;;;;;;5102221;28;20047;-77
2023/12/07 00:38:46;;;;;;;10.13;6.20;;;;;;;;;;5114998;28;20067;-77
2023/12/07 00:41:13;;;;;;;9.40;6.47;;;;;;;;;;5104014;28;20052;-77
2023/12/07 00:43:40;;;;;;;13.40;6.88;;;;;;;;;;5068576;28;20136;-78
2023/12/07 00:46:07;;;;;;;8.32;6.22;;;;;;;;;;5047645;28;20125;-77
2023/12/07 00:48:35;;;;;;;13.15;6.25;;;;;;;;;;5051518;28;20576;-77
2023/12/07 00:51:02;;;;;;;10.38;6.63;;;;;;;;;;5059030;28;20056;-77
2023/12/07 00:53:29;;;;;;;10.55;6.20;;;;;;;;;;5084923;28;20060;-77
2023/12/07 00:55:56;;;;;;;9.82;5.93;;;;;;;;;;5074287;28;20144;-77
2023/12/07 00:58:23;;;;;;;8.40;5.70;;;;;;;;;;5080131;28;20053;-78
2023/12/07 01:00:49;;;;;;;11.60;6.85;;;;;;;;;;5075222;28;20060;-79
2023/12/07 01:03:16;;;;;;;10.82;5.97;;;;;;;;;;5053285;28;20048;-77
2023/12/07 01:05:43;;;;;;;10.82;6.38;;;;;;;;;;5069064;28;20131;-78
2023/12/07 01:08:10;;;;;;;8.23;5.90;;;;;;;;;;5070381;28;20469;-78
2023/12/07 01:10:37;;;;;;;9.60;6.07;;;;;;;;;;5067938;28;20137;-78
2023/12/07 01:13:04;;;;;;;9.38;6.35;;;;;;;;;;5089362;28;20109;-79
2023/12/07 01:15:31;;;;;;;12.98;6.53;;;;;;;;;;5064181;28;20051;-78
2023/12/07 01:17:57;;;;;;;10.38;5.55;;;;;;;;;;5081786;28;20442;-78
2023/12/07 01:20:24;;;;;;;10.95;6.28;;;;;;;;;;5111335;28;20063;-79
2023/12/07 01:22:51;;;;;;;8.85;6.15;;;;;;;;;;5116708;28;20053;-78
2023/12/07 01:25:21;;;;;;;12.65;6.63;;;;;;;;;;5079834;28;20032;-78
2023/12/07 01:27:49;;;;;;;8.60;6.57;;;;;;;;;;5058658;28;20072;-78
2023/12/07 01:30:16;;;;;;;10.40;7.28;;;;;;;;;;5080262;28;20063;-78
2023/12/07 01:32:43;;;;;;;10.43;6.43;;;;;;;;;;5086616;28;20525;-79
2023/12/07 01:35:10;;;;;;;11.60;6.13;;;;;;;;;;5060585;28;20045;-80
2023/12/07 01:37:37;;;;;;;10.25;6.20;;;;;;;;;;5078593;28;20403;-78
2023/12/07 01:40:09;;;;;;;9.45;6.80;;;;;;;;;;5062171;28;20053;-79
2023/12/07 01:42:37;;;;;;;8.77;5.53;;;;;;;;;;5060440;28;20103;-78
2023/12/07 01:45:07;;;;;;;6.40;5.43;;;;;;;;;;5070575;28;20053;-78
2023/12/07 01:47:35;;;;;;;10.30;6.40;;;;;;;;;;5073830;28;20077;-78
2023/12/07 01:50:04;;;;;;;12.32;7.47;;;;;;;;;;5056318;28;20056;-77
2023/12/07 01:52:31;;;;;;;11.65;6.45;;;;;;;;;;5054788;28;20049;-78
2023/12/07 01:54:58;;;;;;;10.13;6.55;;;;;;;;;;5053917;28;20494;-78
2023/12/07 01:57:25;;;;;;;11.50;7.15;;;;;;;;;;5050997;28;20056;-78
2023/12/07 01:59:52;;;;;;;11.18;7.45;;;;;;;;;;5073243;28;20091;-79
2023/12/07 02:02:18;;;;;;;9.25;6.20;;;;;;;;;;5057323;28;20106;-78
2023/12/07 02:04:45;;;;;;;10.10;6.65;;;;;;;;;;5072808;28;20076;-79
2023/12/07 02:07:12;;;;;;;9.93;6.95;;;;;;;;;;5090866;28;20135;-79
2023/12/07 02:09:39;;;;;;;13.98;7.43;;;;;;;;;;5068126;28;20057;-78
2023/12/07 02:12:06;;;;;;;13.80;7.70;;;;;;;;;;5062749;28;20102;-79
2023/12/07 02:14:34;;;;;;;12.35;8.18;;;;;;;;;;5072806;28;20041;-78
2023/12/07 02:17:17;;;;;;;12.48;8.18;;;;;;;;;;5040860;28;20117;-78
2023/12/07 02:20:02;;;;;;;12.73;7.93;;;;;;;;;;5039136;28;20095;-79
2023/12/07 02:22:43;;;;;;;13.38;7.10;;;;;;;;;;5058935;28;20056;-79
2023/12/07 02:25:10;;;;;;;15.73;8.20;;;;;;;;;;5041653;28;20368;-79
2023/12/07 02:27:42;;;;;;;12.23;7.80;;;;;;;;;;5058823;28;20058;-78
2023/12/07 02:30:10;;;;;;;14.63;7.85;;;;;;;;;;5058856;28;20052;-78
2023/12/07 02:32:38;;;;;;;9.93;7.32;;;;;;;;;;5057384;28;20102;-76
2023/12/07 02:35:08;;;;;;;14.02;7.35;;;;;;;;;;5080856;28;20048;-77
2023/12/07 02:37:42;;;;;;;13.43;7.55;;;;;;;;;;5034749;28;20568;-77
2023/12/07 02:40:10;;;;;;;13.75;7.47;;;;;;;;;;5041182;28;20049;-77
2023/12/07 02:42:39;;;;;;;12.82;7.07;;;;;;;;;;5046922;28;20052;-77
2023/12/07 02:45:07;;;;;;;14.18;7.70;;;;;;;;;;5049824;28;20495;-77
2023/12/07 02:47:34;;;;;;;16.10;8.10;;;;;;;;;;5049853;28;20052;-77
2023/12/07 02:50:02;;;;;;;14.95;8.20;;;;;;;;;;5088858;28;20062;-79
2023/12/07 02:52:29;;;;;;;13.65;8.27;;;;;;;;;;5039714;28;20056;-78
2023/12/07 02:54:56;;;;;;;14.80;8.25;;;;;;;;;;5072505;28;20054;-77
2023/12/07 02:57:23;;;;;;;17.50;7.97;;;;;;;;;;5070072;28;20055;-77
2023/12/07 02:59:50;;;;;;;13.10;7.97;;;;;;;;;;5086492;28;20060;-77
2023/12/07 03:02:17;;;;;;;11.88;8.35;;;;;;;;;;5086500;28;20072;-77
2023/12/07 03:04:43;;;;;;;12.68;6.88;;;;;;;;;;5069580;28;20044;-77
2023/12/07 03:07:10;;;;;;;14.38;8.10;;;;;;;;;;5069730;28;20130;-77
2023/12/07 03:09:37;;;;;;;16.17;7.90;;;;;;;;;;5086396;28;20079;-77
2023/12/07 03:12:05;;;;;;;12.73;7.85;;;;;;;;;;5082568;28;20056;-77
2023/12/07 03:14:31;;;;;;;12.50;7.60;;;;;;;;;;5048999;28;20078;-77
2023/12/07 03:16:58;;;;;;;12.48;8.80;;;;;;;;;;5086415;28;20052;-77
2023/12/07 03:19:25;;;;;;;12.10;7.50;;;;;;;;;;5033346;28;20056;-77
2023/12/07 03:21:52;;;;;;;12.18;7.43;;;;;;;;;;5050128;28;20392;-77
2023/12/07 03:24:19;;;;;;;11.93;7.95;;;;;;;;;;5055134;28;20060;-77
2023/12/07 03:26:46;;;;;;;14.15;7.57;;;;;;;;;;5067186;28;20045;-77
2023/12/07 03:29:12;;;;;;;11.63;6.68;;;;;;;;;;5066246;28;20093;-77
2023/12/07 03:31:39;;;;;;;11.27;7.35;;;;;;;;;;5066564;28;20095;-77
2023/12/07 03:34:06;;;;;;;11.05;7.10;;;;;;;;;;5070623;28;20056;-76
2023/12/07 03:36:33;;;;;;;12.02;7.53;;;;;;;;;;5078331;28;20053;-76
2023/12/07 03:39:00;;;;;;;11.02;6.93;;;;;;;;;;5069365;28;20064;-77
2023/12/07 03:41:27;;;;;;;11.90;7.65;;;;;;;;;;5066004;28;20099;-77
2023/12/07 03:43:54;;;;;;;12.77;7.72;;;;;;;;;;5067966;28;20067;-77
2023/12/07 03:46:21;;;;;;;12.43;7.40;;;;;;;;;;5083596;28;20111;-78
2023/12/07 03:48:47;;;;;;;13.80;7.55;;;;;;;;;;5071559;28;20056;-78
2023/12/07 03:51:16;;;;;;;10.77;7.50;;;;;;;;;;5078255;28;20060;-80
2023/12/07 03:53:43;;;;;;;12.55;7.78;;;;;;;;;;5077177;28;20087;-79
2023/12/07 03:56:10;;;;;;;13.02;8.57;;;;;;;;;;5039860;28;20052;-78
2023/12/07 03:58:37;;;;;;;13.35;8.27;;;;;;;;;;5054757;28;20052;-77
2023/12/07 04:01:04;;;;;;;15.70;8.07;;;;;;;;;;5071857;28;20084;-79
2023/12/07 04:03:31;;;;;;;11.38;7.30;;;;;;;;;;5073711;28;20502;-78
2023/12/07 04:05:57;;;;;;;11.93;7.88;;;;;;;;;;5073809;28;20061;-78
2023/12/07 04:08:24;;;;;;;13.90;8.25;;;;;;;;;;5074538;28;20056;-79
2023/12/07 04:10:51;;;;;;;15.25;9.23;;;;;;;;;;5068991;28;20091;-78
2023/12/07 04:13:18;;;;;;;12.88;8.40;;;;;;;;;;5074046;28;20052;-77
2023/12/07 04:15:45;;;;;;;13.50;7.72;;;;;;;;;;5082170;28;20085;-79
2023/12/07 04:18:12;;;;;;;13.80;8.48;;;;;;;;;;5069343;28;20503;-78
2023/12/07 04:20:39;;;;;;;12.82;8.25;;;;;;;;;;5087691;28;20040;-79
2023/12/07 04:23:06;;;;;;;13.05;8.23;;;;;;;;;;5097263;28;20060;-78
2023/12/07 04:25:32;;;;;;;14.45;10.30;;;;;;;;;;5078935;28;20049;-77
2023/12/07 04:27:59;;;;;;;13.02;9.18;;;;;;;;;;5072956;28;20591;-77
2023/12/07 04:30:26;;;;;;;13.52;8.38;;;;;;;;;;5053925;28;20083;-77
2023/12/07 04:32:53;;;;;;;13.40;8.60;;;;;;;;;;5072392;28;20056;-78
2023/12/07 04:35:20;;;;;;;12.85;8.43;;;;;;;;;;5073596;28;20048;-77
2023/12/07 04:37:47;;;;;;;15.82;9.07;;;;;;;;;;5089514;28;20059;-77
2023/12/07 04:40:14;;;;;;;18.02;9.18;;;;;;;;;;5071706;28;20049;-78
2023/12/07 04:42:41;;;;;;;14.57;8.60;;;;;;;;;;5071227;28;20053;-77
2023/12/07 04:45:08;;;;;;;11.73;8.40;;;;;;;;;;5088170;28;20441;-77
2023/12/07 04:47:35;;;;;;;12.50;7.88;;;;;;;;;;5091172;28;20083;-77
2023/12/07 04:50:02;;;;;;;13.40;8.95;;;;;;;;;;5055317;28;20048;-78
2023/12/07 04:52:28;;;;;;;14.70;8.55;;;;;;;;;;5090492;28;20135;-79
2023/12/07 04:54:55;;;;;;;15.80;8.95;;;;;;;;;;5059823;28;20056;-78
2023/12/07 04:57:22;;;;;;;16.60;9.43;;;;;;;;;;5093579;28;20059;-78
2023/12/07 04:59:49;;;;;;;15.02;10.48;;;;;;;;;;5057004;28;20080;-78
2023/12/07 05:02:16;;;;;;;15.00;9.73;;;;;;;;;;5068854;28;20056;-78
2023/12/07 05:04:44;;;;;;;14.25;9.68;;;;;;;;;;5059948;28;20052;-79
2023/12/07 05:07:13;;;;;;;14.98;9.90;;;;;;;;;;5057374;28;20128;-78
2023/12/07 05:09:43;;;;;;;12.70;9.15;;;;;;;;;;5050983;28;20138;-78
2023/12/07 05:12:10;;;;;;;15.10;8.65;;;;;;;;;;5089284;28;20056;-78
2023/12/07 05:14:36;;;;;;;15.35;9.40;;;;;;;;;;5079601;28;20064;-77
2023/12/07 05:17:05;;;;;;;12.52;8.73;;;;;;;;;;5063385;28;20107;-76
2023/12/07 05:19:32;;;;;;;13.73;8.18;;;;;;;;;;5088351;28;20128;-76
2023/12/07 05:21:58;;;;;;;12.57;8.82;;;;;;;;;;5054213;28;20051;-76
2023/12/07 05:24:25;;;;;;;15.02;9.32;;;;;;;;;;5087785;28;20107;-77
2023/12/07 05:26:52;;;;;;;13.00;8.75;;;;;;;;;;5052523;28;20078;-77
2023/12/07 05:29:19;;;;;;;10.13;7.80;;;;;;;;;;5087867;28;20052;-78
2023/12/07 05:31:49;;;;;;;13.90;8.77;;;;;;;;;;5071350;28;20059;-78
2023/12/07 05:34:17;;;;;;;13.63;8.60;;;;;;;;;;5068111;28;20419;-77
2023/12/07 05:36:46;;;;;;;14.05;8.43;;;;;;;;;;5068482;28;20131;-77
2023/12/07 05:39:13;;;;;;;14.18;8.10;;;;;;;;;;5013540;28;1169815;-77
2023/12/07 05:41:39;;;;;;;14.43;8.35;;;;;;;;;;5058638;28;20049;-77
2023/12/07 05:44:06;;;;;;;14.70;9.15;;;;;;;;;;5047821;28;20059;-78
2023/12/07 05:46:35;;;;;;;17.98;10.73;;;;;;;;;;5071741;28;20056;-77
2023/12/07 05:49:03;;;;;;;16.95;9.55;;;;;;;;;;5034672;28;20053;-76
2023/12/07 05:51:29;;;;;;;17.40;9.45;;;;;;;;;;5066978;28;20060;-75
2023/12/07 05:53:57;;;;;;;19.95;10.50;;;;;;;;;;5055247;28;20512;-76
2023/12/07 05:56:24;;;;;;;13.50;8.57;;;;;;;;;;5073147;28;20048;-79
2023/12/07 05:58:51;;;;;;;15.57;9.48;;;;;;;;;;5072954;28;20048;-77
2023/12/07 06:01:18;;;;;;;15.27;8.82;;;;;;;;;;5068543;28;20103;-78
2023/12/07 06:03:45;;;;;;;15.68;8.90;;;;;;;;;;5052652;28;20048;-77
2023/12/07 06:06:12;;;;;;;13.20;8.98;;;;;;;;;;5052402;28;20041;-77
2023/12/07 06:08:39;;;;;;;14.98;8.63;;;;;;;;;;5031822;28;20453;-77
2023/12/07 06:11:06;;;;;;;14.70;9.43;;;;;;;;;;5038743;28;20049;-86
2023/12/07 06:13:33;;;;;;;13.38;8.13;;;;;;;;;;5070666;28;20105;-81
2023/12/07 06:16:02;;;;;;;15.48;8.73;;;;;;;;;;5044337;28;20048;-80
2023/12/07 06:18:29;;;;;;;17.13;9.65;;;;;;;;;;5076431;28;20052;-78
2023/12/07 06:20:56;;;;;;;15.90;9.52;;;;;;;;;;5087907;28;20102;-78
2023/12/07 06:23:23;;;;;;;16.38;9.32;;;;;;;;;;5063403;28;20059;-80
2023/12/07 06:25:50;;;;;;;17.88;10.75;;;;;;;;;;5039445;28;20112;-79
2023/12/07 06:28:16;;;;;;;14.65;9.38;;;;;;;;;;5064130;28;20088;-79
2023/12/07 06:30:44;;;;;;;14.52;9.07;;;;;;;;;;5070646;28;20052;-80
2023/12/07 06:33:11;;;;;;;12.75;9.10;;;;;;;;;;5058895;28;20470;-79
2023/12/07 06:35:38;;;;;;;15.90;9.25;;;;;;;;;;5077207;28;20574;-76
2023/12/07 06:38:05;;;;;;;16.13;10.13;;;;;;;;;;5055311;28;20121;-81
2023/12/07 06:40:32;;;;;;;13.15;9.10;;;;;;;;;;5037062;28;20114;-85
2023/12/07 06:42:59;;;;;;;14.50;9.00;;;;;;;;;;5038482;28;20818;-85
2023/12/07 06:45:26;;;;;;;16.17;9.38;;;;;;;;;;5073212;28;20102;-79
2023/12/07 06:47:53;;;;;;;13.27;8.70;;;;;;;;;;5074902;28;20052;-80
2023/12/07 06:50:21;;;;;;;18.83;10.30;;;;;;;;;;5054270;28;20053;-79
2023/12/07 06:52:48;;;;;;;20.35;10.75;;;;;;;;;;5071092;28;20125;-79
2023/12/07 06:55:15;;;;;;;13.95;9.63;;;;;;;;;;5057877;28;20595;-81
2023/12/07 06:57:42;;;;;;;15.20;9.27;;;;;;;;;;5055700;28;20056;-83
2023/12/07 07:00:10;;;;;;;16.23;9.80;;;;;;;;;;5054172;28;20087;-82
2023/12/07 07:02:39;;;;;;;15.90;9.07;;;;;;;;;;5068589;28;20048;-78
2023/12/07 07:05:06;;;;;;;16.73;9.85;;;;;;;;;;5052605;28;20107;-78
2023/12/07 07:07:33;;;;;;;18.63;9.50;;;;;;;;;;5064938;28;20059;-78
2023/12/07 07:10:00;;;;;;;16.52;9.40;;;;;;;;;;5053276;28;20060;-78
2023/12/07 07:12:27;;;;;;;17.60;10.32;;;;;;;;;;5048957;28;20114;-77
2023/12/07 07:14:54;;;;;;;19.40;9.73;;;;;;;;;;5034024;28;20059;-77
2023/12/07 07:17:21;;;;;;;19.17;11.05;;;;;;;;;;5049845;28;20488;-77
2023/12/07 07:19:48;;;;;;;19.35;10.25;;;;;;;;;;5031764;28;20053;-78
2023/12/07 07:22:15;;;;;;;17.60;10.32;;;;;;;;;;5056305;28;20052;-78
2023/12/07 07:24:42;;;;;;;19.98;11.57;;;;;;;;;;5048652;28;20079;-77
2023/12/07 07:27:08;;;;;;;17.92;10.52;;;;;;;;;;5068082;28;20061;-78
2023/12/07 07:29:36;;;;;;;19.08;10.95;;;;;;;;;;5050168;28;20113;-78
2023/12/07 07:32:02;;;;;;;19.52;10.02;;;;;;;;;;5063017;28;20098;-78
2023/12/07 07:34:29;;;;;;;15.52;10.65;;;;;;;;;;5069376;28;20071;-78
2023/12/07 07:36:56;;;;;;;20.75;11.40;;;;;;;;;;5087397;28;20084;-77
2023/12/07 07:39:23;;;;;;;18.10;10.50;;;;;;;;;;5086877;28;20088;-78
2023/12/07 07:41:50;;;;;;;16.60;10.63;;;;;;;;;;5076689;28;20115;-82
2023/12/07 07:44:17;;;;;;;18.08;9.80;;;;;;;;;;5049701;28;20060;-82
2023/12/07 07:46:44;;;;;;;14.98;9.10;;;;;;;;;;5072410;28;20056;-78
2023/12/07 07:49:11;;;;;;;16.30;11.00;;;;;;;;;;5034771;28;20048;-78
2023/12/07 07:51:38;;;;;;;19.77;10.57;;;;;;;;;;5059874;28;20064;-82
2023/12/07 07:54:05;;;;;;;19.17;11.95;;;;;;;;;;5048063;28;20106;-84
2023/12/07 07:56:32;;;;;;;19.17;10.85;;;;;;;;;;5056807;28;20052;-79
2023/12/07 07:59:00;;;;;;;16.60;9.18;;;;;;;;;;5071965;28;20056;-79
2023/12/07 08:01:27;;;;;;;18.00;10.35;;;;;;;;;;5076068;28;20067;-81
2023/12/07 08:03:54;;;;;;;17.80;10.80;;;;;;;;;;5062857;28;20131;-79
2023/12/07 08:06:21;;;;;;;16.52;10.00;;;;;;;;;;5073329;28;20040;-80
2023/12/07 08:08:49;;;;;;;16.65;10.27;;;;;;;;;;5056823;28;20053;-79
2023/12/07 08:11:16;;;;;;;18.13;11.27;;;;;;;;;;5055199;28;20060;-83
2023/12/07 08:13:43;;;;;;;16.33;9.95;;;;;;;;;;5086122;28;20068;-78
2023/12/07 08:16:10;;;;;;;17.73;10.48;;;;;;;;;;5069496;28;20056;-78
2023/12/07 08:18:38;;;;;;;15.18;9.90;;;;;;;;;;5044238;28;20056;-78
2023/12/07 08:21:08;;;;;;;15.43;9.15;;;;;;;;;;5066364;28;20535;-78
2023/12/07 08:23:35;;;;;;;16.25;9.95;;;;;;;;;;5058770;28;20088;-80
2023/12/07 08:26:02;;;;;;;16.83;10.98;;;;;;;;;;5057378;28;20053;-83
2023/12/07 08:28:29;;;;;;;17.33;9.75;;;;;;;;;;5063822;28;20087;-83
2023/12/07 08:30:56;;;;;;;15.65;9.50;;;;;;;;;;5052849;28;20084;-81
2023/12/07 08:33:23;;;;;;;17.23;10.50;;;;;;;;;;5053200;28;20125;-81
2023/12/07 08:35:54;;;;;;;17.00;9.60;;;;;;;;;;5069381;28;20079;-81
2023/12/07 08:38:22;;;;;;;14.93;9.82;;;;;;;;;;5072421;28;20421;-81
2023/12/07 08:40:49;;;;;;;18.70;10.82;;;;;;;;;;5067420;28;20122;-81
2023/12/07 08:43:16;;;;;;;17.70;10.18;;;;;;;;;;5075266;28;20053;-82
2023/12/07 08:45:43;;;;;;;23.30;11.68;;;;;;;;;;5072236;28;20033;-82
2023/12/07 08:48:10;;;;;;;17.23;10.02;;;;;;;;;;5078890;28;20053;-79
2023/12/07 08:50:37;;;;;;;15.43;9.85;;;;;;;;;;5050200;28;20072;-79
2023/12/07 08:53:04;;;;;;;23.13;10.32;;;;;;;;;;5086700;28;20506;-79
2023/12/07 08:55:32;;;;;;;14.60;10.15;;;;;;;;;;5069482;28;20052;-79
2023/12/07 08:58:00;;;;;;;17.60;9.48;;;;;;;;;;5056834;28;20060;-80
2023/12/07 09:00:27;;;;;;;14.00;10.40;;;;;;;;;;5059377;28;20151;-81
2023/12/07 09:02:54;;;;;;;15.18;8.95;;;;;;;;;;5043678;28;20482;-80
2023/12/07 09:05:21;;;;;;;14.52;9.02;;;;;;;;;;5060261;28;20045;-81
2023/12/07 09:07:48;;;;;;;16.20;9.93;;;;;;;;;;5079170;28;20044;-81
2023/12/07 09:10:15;;;;;;;16.65;9.75;;;;;;;;;;5077035;28;20114;-81
2023/12/07 09:12:42;;;;;;;14.63;9.63;;;;;;;;;;5068367;28;20049;-81
2023/12/07 09:15:09;;;;;;;14.60;9.32;;;;;;;;;;5090944;28;20056;-80
2023/12/07 09:17:38;;;;;;;14.63;9.95;;;;;;;;;;5078228;28;20437;-80
2023/12/07 09:20:11;;;;;;;14.30;9.82;;;;;;;;;;5074901;28;20044;-78
2023/12/07 09:22:42;;;;;;;15.85;9.48;;;;;;;;;;5086438;28;20040;-77
2023/12/07 09:25:10;;;;;;;14.73;8.73;;;;;;;;;;5035195;28;20052;-78
2023/12/07 09:27:38;;;;;;;16.80;10.35;;;;;;;;;;5033140;28;20053;-77
2023/12/07 09:30:10;;;;;;;16.08;9.00;;;;;;;;;;5028055;28;20053;-77
2023/12/07 09:32:42;;;;;;;13.43;8.45;;;;;;;;;;5035443;28;20118;-78
2023/12/07 09:35:16;;;;;;;12.80;9.05;;;;;;;;;;5035550;28;20056;-78
2023/12/07 09:37:43;;;;;;;16.35;9.70;;;;;;;;;;5067414;28;20083;-77
2023/12/07 09:40:17;;;;;;;15.63;9.55;;;;;;;;;;5089497;28;20106;-77
2023/12/07 09:42:45;;;;;;;15.65;9.95;;;;;;;;;;5036850;28;20461;-78
2023/12/07 09:45:13;;;;;;;12.98;9.23;;;;;;;;;;5069003;28;20048;-77
2023/12/07 09:47:40;;;;;;;14.45;9.35;;;;;;;;;;5039773;28;20049;-78
2023/12/07 09:50:08;;;;;;;12.88;8.82;;;;;;;;;;5035908;28;20131;-77
2023/12/07 09:52:35;;;;;;;16.58;10.38;;;;;;;;;;5032571;28;20446;-78
2023/12/07 09:55:03;;;;;;;13.30;8.43;;;;;;;;;;5039524;28;20045;-77
2023/12/07 09:57:30;;;;;;;15.50;9.68;;;;;;;;;;5069745;28;20057;-78
2023/12/07 09:59:57;;;;;;;14.45;8.73;;;;;;;;;;5038443;28;20053;-77
2023/12/07 10:02:25;;;;;;;11.50;7.85;;;;;;;;;;5069287;28;20099;-77
2023/12/07 10:05:05;;;;;;;12.02;8.07;;;;;;;;;;5054014;28;20061;-78
2023/12/07 10:07:37;;;;;;;18.50;11.02;;;;;;;;;;5035797;28;20099;-77
2023/12/07 10:10:05;;;;;;;18.00;12.45;;;;;;;;;;5048524;28;20549;-78
2023/12/07 10:12:35;;;;;;;15.55;9.15;;;;;;;;;;5055565;28;20306;-78
2023/12/07 10:15:18;;;;;;;15.23;8.73;;;;;;;;;;5039331;28;20133;-78
2023/12/07 10:17:53;;;;;;;10.95;7.82;;;;;;;;;;5037463;28;20059;-78
2023/12/07 10:20:25;;;;;;;12.13;7.40;;;;;;;;;;5068377;28;20103;-78
2023/12/07 10:23:03;;;;;;;11.15;6.53;;;;;;;;;;5039076;28;20058;-77
2023/12/07 10:25:37;;;;;;;9.25;6.70;;;;;;;;;;5071449;28;20063;-78
2023/12/07 10:28:07;;;;;;;11.20;7.20;;;;;;;;;;5051738;28;20049;-77
2023/12/07 10:30:35;;;;;;;8.80;6.07;;;;;;;;;;5048442;28;20503;-77
2023/12/07 10:33:06;;;;;;;12.77;7.68;;;;;;;;;;5055583;28;20056;-78
2023/12/07 10:35:41;;;;;;;11.65;6.95;;;;;;;;;;5052266;28;20103;-78
2023/12/07 10:38:09;;;;;;;10.98;7.80;;;;;;;;;;5032090;28;20049;-78
2023/12/07 10:40:36;;;;;;;12.63;8.27;;;;;;;;;;5038926;28;20048;-77
2023/12/07 10:43:05;;;;;;;11.48;7.82;;;;;;;;;;5038792;28;20052;-78
2023/12/07 10:45:33;;;;;;;11.05;8.25;;;;;;;;;;5039006;28;20110;-78
2023/12/07 10:48:09;;;;;;;10.27;7.18;;;;;;;;;;5038937;28;20091;-76
2023/12/07 10:50:41;;;;;;;11.30;8.27;;;;;;;;;;5035343;28;20132;-77
2023/12/07 10:53:10;;;;;;;11.15;7.30;;;;;;;;;;5032637;28;20571;-79
2023/12/07 10:55:52;;;;;;;12.25;7.70;;;;;;;;;;5037988;28;20135;-77
2023/12/07 10:58:19;;;;;;;11.52;7.38;;;;;;;;;;5055645;28;20080;-78
2023/12/07 11:00:46;;;;;;;12.75;8.07;;;;;;;;;;5037954;28;20052;-78
2023/12/07 11:03:17;;;;;;;13.43;8.50;;;;;;;;;;5034883;28;20515;-77
2023/12/07 11:05:45;;;;;;;13.20;7.88;;;;;;;;;;5033161;28;20053;-78
2023/12/07 11:08:21;;;;;;;10.32;7.70;;;;;;;;;;5035188;28;20098;-78
2023/12/07 11:10:53;;;;;;;11.25;7.50;;;;;;;;;;5029031;28;20119;-77
2023/12/07 11:13:27;;;;;;;13.10;7.13;;;;;;;;;;5035391;28;20061;-77
2023/12/07 11:15:55;;;;;;;12.85;7.30;;;;;;;;;;5036928;28;20052;-78
2023/12/07 11:18:23;;;;;;;11.02;7.18;;;;;;;;;;5067929;28;20053;-78
2023/12/07 11:20:51;;;;;;;10.90;7.95;;;;;;;;;;5038107;28;20088;-78
2023/12/07 11:23:21;;;;;;;11.00;7.45;;;;;;;;;;5051262;28;20049;-78
2023/12/07 11:25:48;;;;;;;10.57;6.90;;;;;;;;;;5050758;28;20071;-78
2023/12/07 11:28:15;;;;;;;11.82;7.65;;;;;;;;;;5034840;28;20419;-78
2023/12/07 11:30:44;;;;;;;11.98;7.32;;;;;;;;;;5068812;28;20131;-78
2023/12/07 11:33:12;;;;;;;11.60;7.55;;;;;;;;;;5035362;28;20274;-77
2023/12/07 11:36:01;;;;;;;10.25;6.82;;;;;;;;;;5048802;28;20105;-78
2023/12/07 11:38:28;;;;;;;8.90;6.53;;;;;;;;;;5071707;28;20049;-77
2023/12/07 11:40:55;;;;;;;9.13;6.53;;;;;;;;;;5037096;28;20052;-78
2023/12/07 11:43:45;;;;;;;10.85;7.70;;;;;;;;;;5036620;28;20509;-78
2023/12/07 11:46:14;;;;;;;7.95;5.90;;;;;;;;;;5062105;28;20049;-79
2023/12/07 11:48:46;;;;;;;10.23;6.60;;;;;;;;;;5050765;28;20418;-77
2023/12/07 11:51:13;;;;;;;9.95;6.30;;;;;;;;;;5052652;28;20075;-78
2023/12/07 11:53:40;;;;;;;10.38;6.47;;;;;;;;;;5068014;28;20056;-78
2023/12/07 11:56:08;;;;;;;9.25;6.25;;;;;;;;;;5072443;28;20102;-77
2023/12/07 11:58:36;;;;;;;9.57;6.40;;;;;;;;;;5051556;28;20461;-78
2023/12/07 12:01:07;;;;;;;10.55;5.95;;;;;;;;;;5031994;28;20120;-77
2023/12/07 12:03:36;;;;;;;9.32;6.18;;;;;;;;;;5067814;28;20076;-77
2023/12/07 12:06:05;;;;;;;9.07;6.00;;;;;;;;;;5056574;28;20052;-77
2023/12/07 12:08:32;;;;;;;6.93;5.40;;;;;;;;;;5055917;28;20060;-78
2023/12/07 12:10:58;;;;;;;7.40;5.45;;;;;;;;;;5057880;28;20444;-77
2023/12/07 12:13:38;;;;;;;10.43;6.20;;;;;;;;;;5091500;28;20048;-78
2023/12/07 12:16:05;;;;;;;8.40;5.63;;;;;;;;;;5075339;28;20060;-78
2023/12/07 12:18:33;;;;;;;9.40;5.35;;;;;;;;;;5054866;28;20068;-77
2023/12/07 12:21:01;;;;;;;9.00;6.25;;;;;;;;;;5041715;28;20052;-78
2023/12/07 12:23:28;;;;;;;6.97;4.90;;;;;;;;;;5091162;28;20612;-78
2023/12/07 12:25:56;;;;;;;8.15;5.63;;;;;;;;;;5091346;28;20127;-77
2023/12/07 12:28:24;;;;;;;10.13;5.53;;;;;;;;;;5037742;28;20159;-77
2023/12/07 12:30:51;;;;;;;6.72;4.50;;;;;;;;;;5071182;28;20052;-78
2023/12/07 12:33:18;;;;;;;7.15;4.30;;;;;;;;;;5038060;28;20049;-78
2023/12/07 12:35:45;;;;;;;7.60;5.32;;;;;;;;;;5071977;28;20488;-77
2023/12/07 12:38:12;;;;;;;8.65;5.20;;;;;;;;;;5037804;28;20049;-78
2023/12/07 12:40:53;;;;;;;6.55;4.82;;;;;;;;;;5069754;28;20080;-77
2023/12/07 12:43:21;;;;;;;9.40;4.55;;;;;;;;;;5071078;28;20116;-77
2023/12/07 12:45:49;;;;;;;4.75;3.95;;;;;;;;;;5073021;28;20048;-78
2023/12/07 12:48:32;;;;;;;4.28;3.47;;;;;;;;;;5088957;28;20048;-77
2023/12/07 12:51:07;;;;;;;5.05;3.65;;;;;;;;;;5040770;28;20118;-78
2023/12/07 12:53:35;;;;;;;5.18;2.88;;;;;;;;;;5037214;28;20136;-78
2023/12/07 12:56:03;;;;;;;6.28;3.00;;;;;;;;;;5057354;28;20127;-78
2023/12/07 12:58:30;;;;;;;7.35;3.33;;;;;;;;;;5073555;28;20051;-78
2023/12/07 13:00:57;;;;;;;4.22;2.88;;;;;;;;;;5056364;28;20092;-78
2023/12/07 13:03:24;;;;;;;4.32;2.88;;;;;;;;;;5073598;28;20082;-78
2023/12/07 13:05:51;;;;;;;4.32;2.80;;;;;;;;;;5055070;28;20053;-78
2023/12/07 13:08:18;;;;;;;5.35;2.90;;;;;;;;;;5090431;28;20056;-79
2023/12/07 13:10:45;;;;;;;5.07;3.20;;;;;;;;;;5054955;28;20057;-78
2023/12/07 13:13:12;;;;;;;4.60;3.17;;;;;;;;;;5070546;28;20080;-78
2023/12/07 13:15:38;;;;;;;3.20;2.65;;;;;;;;;;5070942;28;20053;-78
2023/12/07 13:18:05;;;;;;;4.95;2.55;;;;;;;;;;5073509;28;20070;-78
2023/12/07 13:20:36;;;;;;;3.65;2.55;;;;;;;;;;5090169;28;20060;-78
2023/12/07 13:23:06;;;;;;;4.55;2.40;;;;;;;;;;5057549;28;20569;-78
2023/12/07 13:25:33;;;;;;;3.85;3.00;;;;;;;;;;5069939;28;20048;-78
2023/12/07 13:28:00;;;;;;;4.78;2.38;;;;;;;;;;5040295;28;20049;-78
2023/12/07 13:30:29;;;;;;;6.00;2.80;;;;;;;;;;5053781;28;20106;-78
2023/12/07 13:32:56;;;;;;;5.35;3.22;;;;;;;;;;5055279;28;20128;-78
2023/12/07 13:35:23;;;;;;;3.58;2.55;;;;;;;;;;5090555;28;20108;-78
2023/12/07 13:37:50;;;;;;;4.35;3.33;;;;;;;;;;5071438;28;20049;-78
2023/12/07 13:40:17;;;;;;;4.93;3.58;;;;;;;;;;5053050;28;20131;-78
2023/12/07 13:42:43;;;;;;;5.10;3.47;;;;;;;;;;5067694;28;20546;-78
2023/12/07 13:45:11;;;;;;;3.83;2.60;;;;;;;;;;5036168;28;20507;-78
2023/12/07 13:47:38;;;;;;;3.65;2.67;;;;;;;;;;5052893;28;20060;-79
2023/12/07 13:50:05;;;;;;;3.35;2.78;;;;;;;;;;5056189;28;20052;-78
2023/12/07 13:52:32;;;;;;;5.57;3.00;;;;;;;;;;5056547;28;20053;-78
2023/12/07 13:54:59;;;;;;;3.92;2.50;;;;;;;;;;5072642;28;20060;-78
2023/12/07 13:57:26;;;;;;;4.55;3.00;;;;;;;;;;5073812;28;20494;-78
2023/12/07 13:59:54;;;;;;;3.75;2.70;;;;;;;;;;5062474;28;20052;-78
2023/12/07 14:02:21;;;;;;;9.85;2.58;;;;;;;;;;5050731;28;20052;-78
2023/12/07 14:04:49;;;;;;;4.70;2.35;;;;;;;;;;5089045;28;20098;-78
2023/12/07 14:07:18;;;;;;;5.53;2.30;;;;;;;;;;5053032;28;20551;-78
2023/12/07 14:09:47;;;;;;;4.13;2.25;;;;;;;;;;5067446;28;20138;-78
2023/12/07 14:12:24;;;;;;;5.03;2.38;;;;;;;;;;5089004;28;20060;-78
2023/12/07 14:14:51;;;;;;;5.35;2.65;;;;;;;;;;5053996;28;20058;-78
2023/12/07 14:17:19;;;;;;;4.18;2.42;;;;;;;;;;5052769;28;20053;-78
2023/12/07 14:19:48;;;;;;;4.88;2.70;;;;;;;;;;5072474;28;20499;-78
2023/12/07 14:22:16;;;;;;;3.55;2.40;;;;;;;;;;5052570;28;20502;-78
2023/12/07 14:24:43;;;;;;;3.13;2.00;;;;;;;;;;5051317;28;20140;-77
2023/12/07 14:27:10;;;;;;;3.03;1.77;;;;;;;;;;5089387;28;20522;-78
2023/12/07 14:29:37;;;;;;;3.00;1.55;;;;;;;;;;5088375;28;20056;-78
2023/12/07 14:32:04;;;;;;;2.80;1.63;;;;;;;;;;5068720;28;20048;-78
2023/12/07 14:34:31;;;;;;;4.07;1.60;;;;;;;;;;5039742;28;20418;-78
2023/12/07 14:37:05;;;;;;;1.70;1.40;;;;;;;;;;5073195;28;20602;-78